LFOB/BVA METAR and TAF weather

Enter ICAO airport designator
Station Type Date Time Source
LFOB METAR 2018/12/15 23:00 UTC NOAA

LFOB 152300Z AUTO 12002KT 4600 BR OVC005 01/00 Q1009 BECMG 0300 FG VV///


Station Type Date Time Source
LFOB Decoded METAR 2018/12/15 23:00 UTC NOAA

Beauvais, France (LFOB) 49-28N 002-07E 111M
Dec 15, 2018 - 06:00 PM EST / 2018.12.15 2300 UTC
Wind: from the ESE (120 degrees) at 2 MPH (2 KT):0
Visibility: 2 mile(s):0
Sky conditions: overcast
Weather: mist
Temperature: 33 F (1 C)
Dew Point: 32 F (0 C)
Relative Humidity: 93%
Pressure (altimeter): 29.80 in. Hg (1009 hPa)
ob: LFOB 152300Z AUTO 12002KT 4600 BR OVC005 01/00 Q1009 BECMG 0300 FG VV///
cycle: 23

Station Type Date Time Source
LFOB TAF 2018/12/15 20:17 UTC NOAA

TAF
AMD LFOB 152009Z 1520/1618 13012KT 4000 RASN OVC010
BECMG 1520/1523 19007KT 2000 BR OVC003
BECMG 1523/1602 0300 FG VV///


Example: see airport list